sensor_id;sensor_type;location;lat;lon;timestamp;P1;durP1;ratioP1;P2;durP2;ratioP2
73023;SDS011;61199;47.526;8.538;2023-03-01T00:01:18;34.90;;;19.23;;
73023;SDS011;61199;47.526;8.538;2023-03-01T00:03:46;40.83;;;22.47;;
73023;SDS011;61199;47.526;8.538;2023-03-01T00:06:14;39.50;;;20.53;;
73023;SDS011;61199;47.526;8.538;2023-03-01T00:08:41;35.93;;;19.93;;
73023;SDS011;61199;47.526;8.538;2023-03-01T00:13:40;41.60;;;21.20;;
73023;SDS011;61199;47.526;8.538;2023-03-01T00:16:08;37.60;;;20.23;;
73023;SDS011;61199;47.526;8.538;2023-03-01T00:18:37;38.13;;;20.73;;
73023;SDS011;61199;47.526;8.538;2023-03-01T00:21:03;41.70;;;20.03;;
73023;SDS011;61199;47.526;8.538;2023-03-01T00:23:30;35.10;;;18.07;;
73023;SDS011;61199;47.526;8.538;2023-03-01T00:25:56;35.60;;;19.43;;
73023;SDS011;61199;47.526;8.538;2023-03-01T00:28:23;33.07;;;19.23;;
73023;SDS011;61199;47.526;8.538;2023-03-01T00:30:49;40.10;;;21.57;;
73023;SDS011;61199;47.526;8.538;2023-03-01T00:33:16;36.97;;;20.50;;
73023;SDS011;61199;47.526;8.538;2023-03-01T00:35:43;40.23;;;21.07;;
73023;SDS011;61199;47.526;8.538;2023-03-01T00:38:10;41.13;;;20.83;;
73023;SDS011;61199;47.526;8.538;2023-03-01T00:40:36;42.43;;;20.97;;
73023;SDS011;61199;47.526;8.538;2023-03-01T00:43:03;33.77;;;18.73;;
73023;SDS011;61199;47.526;8.538;2023-03-01T00:45:30;37.43;;;19.70;;
73023;SDS011;61199;47.526;8.538;2023-03-01T00:47:57;37.33;;;19.27;;
73023;SDS011;61199;47.526;8.538;2023-03-01T00:50:23;43.73;;;20.93;;
73023;SDS011;61199;47.526;8.538;2023-03-01T00:52:53;38.43;;;20.70;;
73023;SDS011;61199;47.526;8.538;2023-03-01T00:55:20;41.40;;;20.50;;
73023;SDS011;61199;47.526;8.538;2023-03-01T00:57:47;44.93;;;20.73;;
73023;SDS011;61199;47.526;8.538;2023-03-01T01:00:14;38.77;;;21.17;;
73023;SDS011;61199;47.526;8.538;2023-03-01T01:02:41;43.70;;;21.37;;
73023;SDS011;61199;47.526;8.538;2023-03-01T01:05:08;38.27;;;20.90;;
73023;SDS011;61199;47.526;8.538;2023-03-01T01:07:35;40.67;;;20.20;;
73023;SDS011;61199;47.526;8.538;2023-03-01T01:10:01;37.70;;;19.80;;
73023;SDS011;61199;47.526;8.538;2023-03-01T01:12:28;34.73;;;19.50;;
73023;SDS011;61199;47.526;8.538;2023-03-01T01:14:55;35.77;;;20.80;;
73023;SDS011;61199;47.526;8.538;2023-03-01T01:17:21;40.07;;;19.87;;
73023;SDS011;61199;47.526;8.538;2023-03-01T01:19:48;31.70;;;18.30;;
73023;SDS011;61199;47.526;8.538;2023-03-01T01:22:14;38.00;;;20.43;;
73023;SDS011;61199;47.526;8.538;2023-03-01T01:24:40;37.70;;;20.67;;
73023;SDS011;61199;47.526;8.538;2023-03-01T01:27:07;39.57;;;20.43;;
73023;SDS011;61199;47.526;8.538;2023-03-01T01:29:33;36.50;;;20.67;;
73023;SDS011;61199;47.526;8.538;2023-03-01T01:32:00;35.27;;;19.90;;
73023;SDS011;61199;47.526;8.538;2023-03-01T01:34:26;44.53;;;21.50;;
73023;SDS011;61199;47.526;8.538;2023-03-01T01:36:53;42.07;;;21.40;;
73023;SDS011;61199;47.526;8.538;2023-03-01T01:39:20;39.43;;;21.03;;
73023;SDS011;61199;47.526;8.538;2023-03-01T01:41:48;38.73;;;19.30;;
73023;SDS011;61199;47.526;8.538;2023-03-01T01:46:50;40.87;;;21.67;;
73023;SDS011;61199;47.526;8.538;2023-03-01T01:49:25;41.40;;;22.60;;
73023;SDS011;61199;47.526;8.538;2023-03-01T01:52:02;43.17;;;20.03;;
73023;SDS011;61199;47.526;8.538;2023-03-01T01:54:44;37.53;;;20.90;;
73023;SDS011;61199;47.526;8.538;2023-03-01T01:57:14;41.73;;;21.70;;
73023;SDS011;61199;47.526;8.538;2023-03-01T01:59:47;45.87;;;23.10;;
73023;SDS011;61199;47.526;8.538;2023-03-01T02:02:18;43.63;;;21.80;;
73023;SDS011;61199;47.526;8.538;2023-03-01T02:04:46;42.70;;;21.33;;
73023;SDS011;61199;47.526;8.538;2023-03-01T02:07:24;47.43;;;23.33;;
73023;SDS011;61199;47.526;8.538;2023-03-01T02:09:52;40.50;;;21.83;;
73023;SDS011;61199;47.526;8.538;2023-03-01T02:12:20;46.70;;;21.70;;
73023;SDS011;61199;47.526;8.538;2023-03-01T02:14:49;40.10;;;20.47;;
73023;SDS011;61199;47.526;8.538;2023-03-01T02:17:16;41.23;;;21.87;;
73023;SDS011;61199;47.526;8.538;2023-03-01T02:19:48;41.93;;;22.20;;
73023;SDS011;61199;47.526;8.538;2023-03-01T02:22:20;44.97;;;23.10;;
73023;SDS011;61199;47.526;8.538;2023-03-01T02:27:56;43.80;;;23.77;;
73023;SDS011;61199;47.526;8.538;2023-03-01T02:30:31;44.50;;;22.07;;
73023;SDS011;61199;47.526;8.538;2023-03-01T02:32:59;43.30;;;22.63;;
73023;SDS011;61199;47.526;8.538;2023-03-01T02:35:32;42.57;;;22.03;;
73023;SDS011;61199;47.526;8.538;2023-03-01T02:38:02;45.83;;;23.00;;
73023;SDS011;61199;47.526;8.538;2023-03-01T02:40:32;50.80;;;24.47;;
73023;SDS011;61199;47.526;8.538;2023-03-01T02:43:00;42.20;;;22.27;;
73023;SDS011;61199;47.526;8.538;2023-03-01T02:45:29;49.87;;;23.60;;
73023;SDS011;61199;47.526;8.538;2023-03-01T02:47:55;42.90;;;21.37;;
73023;SDS011;61199;47.526;8.538;2023-03-01T02:53:04;51.10;;;24.70;;
73023;SDS011;61199;47.526;8.538;2023-03-01T02:55:37;47.60;;;24.17;;
73023;SDS011;61199;47.526;8.538;2023-03-01T02:58:04;42.73;;;23.03;;
73023;SDS011;61199;47.526;8.538;2023-03-01T03:00:33;43.43;;;23.23;;
73023;SDS011;61199;47.526;8.538;2023-03-01T03:03:06;46.37;;;24.57;;
73023;SDS011;61199;47.526;8.538;2023-03-01T03:05:33;45.50;;;24.77;;
73023;SDS011;61199;47.526;8.538;2023-03-01T03:08:00;50.47;;;23.00;;
73023;SDS011;61199;47.526;8.538;2023-03-01T03:10:29;46.77;;;24.17;;
73023;SDS011;61199;47.526;8.538;2023-03-01T03:12:58;44.97;;;24.50;;
73023;SDS011;61199;47.526;8.538;2023-03-01T03:15:27;47.73;;;23.50;;
73023;SDS011;61199;47.526;8.538;2023-03-01T03:17:55;45.20;;;24.17;;
73023;SDS011;61199;47.526;8.538;2023-03-01T03:20:25;50.23;;;25.43;;
73023;SDS011;61199;47.526;8.538;2023-03-01T03:22:54;49.97;;;24.63;;
73023;SDS011;61199;47.526;8.538;2023-03-01T03:25:22;47.13;;;25.13;;
73023;SDS011;61199;47.526;8.538;2023-03-01T03:27:49;47.10;;;25.03;;
73023;SDS011;61199;47.526;8.538;2023-03-01T03:30:24;46.03;;;23.60;;
73023;SDS011;61199;47.526;8.538;2023-03-01T03:32:52;50.73;;;25.50;;
73023;SDS011;61199;47.526;8.538;2023-03-01T03:35:41;48.70;;;25.70;;
73023;SDS011;61199;47.526;8.538;2023-03-01T03:38:07;45.10;;;24.23;;
73023;SDS011;61199;47.526;8.538;2023-03-01T03:40:42;46.13;;;23.87;;
73023;SDS011;61199;47.526;8.538;2023-03-01T03:43:12;42.73;;;23.17;;
73023;SDS011;61199;47.526;8.538;2023-03-01T03:45:44;47.33;;;25.00;;
73023;SDS011;61199;47.526;8.538;2023-03-01T03:48:12;57.90;;;25.27;;
73023;SDS011;61199;47.526;8.538;2023-03-01T03:50:38;46.73;;;24.33;;
73023;SDS011;61199;47.526;8.538;2023-03-01T03:53:08;44.20;;;23.43;;
73023;SDS011;61199;47.526;8.538;2023-03-01T03:55:38;50.23;;;24.27;;
73023;SDS011;61199;47.526;8.538;2023-03-01T03:58:06;49.20;;;23.40;;
73023;SDS011;61199;47.526;8.538;2023-03-01T04:00:39;49.23;;;24.27;;
73023;SDS011;61199;47.526;8.538;2023-03-01T04:03:07;43.53;;;23.03;;
73023;SDS011;61199;47.526;8.538;2023-03-01T04:05:34;42.20;;;23.10;;
73023;SDS011;61199;47.526;8.538;2023-03-01T04:08:01;44.40;;;23.50;;
73023;SDS011;61199;47.526;8.538;2023-03-01T04:10:29;46.40;;;23.97;;
73023;SDS011;61199;47.526;8.538;2023-03-01T04:12:57;48.20;;;24.60;;
73023;SDS011;61199;47.526;8.538;2023-03-01T04:15:25;46.27;;;24.30;;
73023;SDS011;61199;47.526;8.538;2023-03-01T04:17:53;46.33;;;23.50;;
73023;SDS011;61199;47.526;8.538;2023-03-01T04:20:21;46.70;;;23.60;;
73023;SDS011;61199;47.526;8.538;2023-03-01T04:22:56;50.20;;;25.70;;
73023;SDS011;61199;47.526;8.538;2023-03-01T04:25:24;45.73;;;22.27;;
73023;SDS011;61199;47.526;8.538;2023-03-01T04:27:51;46.27;;;23.57;;
73023;SDS011;61199;47.526;8.538;2023-03-01T04:30:17;51.53;;;24.20;;
73023;SDS011;61199;47.526;8.538;2023-03-01T04:32:43;41.37;;;22.83;;
73023;SDS011;61199;47.526;8.538;2023-03-01T04:35:10;46.93;;;23.47;;
73023;SDS011;61199;47.526;8.538;2023-03-01T04:37:36;57.00;;;24.40;;
73023;SDS011;61199;47.526;8.538;2023-03-01T04:40:03;51.37;;;23.70;;
73023;SDS011;61199;47.526;8.538;2023-03-01T04:42:41;43.37;;;23.60;;
73023;SDS011;61199;47.526;8.538;2023-03-01T04:45:08;46.67;;;23.60;;
73023;SDS011;61199;47.526;8.538;2023-03-01T04:47:39;50.50;;;24.97;;
73023;SDS011;61199;47.526;8.538;2023-03-01T04:50:10;46.60;;;24.47;;
73023;SDS011;61199;47.526;8.538;2023-03-01T04:52:37;44.17;;;22.30;;
73023;SDS011;61199;47.526;8.538;2023-03-01T04:55:07;42.63;;;21.80;;
73023;SDS011;61199;47.526;8.538;2023-03-01T04:57:34;46.03;;;23.20;;
73023;SDS011;61199;47.526;8.538;2023-03-01T05:00:01;46.70;;;24.07;;
73023;SDS011;61199;47.526;8.538;2023-03-01T05:02:49;45.17;;;23.93;;
73023;SDS011;61199;47.526;8.538;2023-03-01T05:05:45;46.30;;;24.10;;
73023;SDS011;61199;47.526;8.538;2023-03-01T05:08:13;45.87;;;22.63;;
73023;SDS011;61199;47.526;8.538;2023-03-01T05:10:44;47.83;;;24.03;;
73023;SDS011;61199;47.526;8.538;2023-03-01T05:13:12;45.30;;;23.37;;
73023;SDS011;61199;47.526;8.538;2023-03-01T05:15:39;43.83;;;23.73;;
73023;SDS011;61199;47.526;8.538;2023-03-01T05:18:06;50.70;;;24.60;;
73023;SDS011;61199;47.526;8.538;2023-03-01T05:20:37;47.23;;;23.77;;
73023;SDS011;61199;47.526;8.538;2023-03-01T05:23:04;46.80;;;24.20;;
73023;SDS011;61199;47.526;8.538;2023-03-01T05:25:32;48.60;;;23.67;;
73023;SDS011;61199;47.526;8.538;2023-03-01T05:28:00;43.60;;;22.53;;
73023;SDS011;61199;47.526;8.538;2023-03-01T05:30:31;49.73;;;25.57;;
73023;SDS011;61199;47.526;8.538;2023-03-01T05:32:59;47.97;;;23.10;;
73023;SDS011;61199;47.526;8.538;2023-03-01T05:35:26;50.60;;;24.20;;
73023;SDS011;61199;47.526;8.538;2023-03-01T05:37:52;49.03;;;23.93;;
73023;SDS011;61199;47.526;8.538;2023-03-01T05:40:21;45.60;;;22.60;;
73023;SDS011;61199;47.526;8.538;2023-03-01T05:42:52;45.90;;;23.20;;
73023;SDS011;61199;47.526;8.538;2023-03-01T05:45:20;46.60;;;23.97;;
73023;SDS011;61199;47.526;8.538;2023-03-01T05:47:48;51.83;;;25.90;;
73023;SDS011;61199;47.526;8.538;2023-03-01T05:50:19;45.60;;;23.83;;
73023;SDS011;61199;47.526;8.538;2023-03-01T05:52:52;46.80;;;24.00;;
73023;SDS011;61199;47.526;8.538;2023-03-01T05:55:42;52.70;;;24.83;;
73023;SDS011;61199;47.526;8.538;2023-03-01T05:58:11;47.07;;;24.17;;
73023;SDS011;61199;47.526;8.538;2023-03-01T06:00:40;49.07;;;24.17;;
73023;SDS011;61199;47.526;8.538;2023-03-01T06:03:09;49.20;;;23.83;;
73023;SDS011;61199;47.526;8.538;2023-03-01T06:05:36;49.07;;;24.80;;
73023;SDS011;61199;47.526;8.538;2023-03-01T06:08:03;50.13;;;24.30;;
73023;SDS011;61199;47.526;8.538;2023-03-01T06:10:30;48.17;;;24.73;;
73023;SDS011;61199;47.526;8.538;2023-03-01T06:12:56;50.47;;;25.53;;
73023;SDS011;61199;47.526;8.538;2023-03-01T06:15:23;48.13;;;24.23;;
73023;SDS011;61199;47.526;8.538;2023-03-01T06:17:50;44.63;;;23.37;;
73023;SDS011;61199;47.526;8.538;2023-03-01T06:20:18;53.30;;;25.50;;
73023;SDS011;61199;47.526;8.538;2023-03-01T06:22:46;48.03;;;24.37;;
73023;SDS011;61199;47.526;8.538;2023-03-01T06:25:16;48.70;;;24.90;;
73023;SDS011;61199;47.526;8.538;2023-03-01T06:27:44;50.60;;;24.10;;
73023;SDS011;61199;47.526;8.538;2023-03-01T06:30:12;51.60;;;23.50;;
73023;SDS011;61199;47.526;8.538;2023-03-01T06:32:40;52.33;;;24.83;;
73023;SDS011;61199;47.526;8.538;2023-03-01T06:35:08;53.57;;;27.23;;
73023;SDS011;61199;47.526;8.538;2023-03-01T06:37:37;56.23;;;25.57;;
73023;SDS011;61199;47.526;8.538;2023-03-01T06:40:04;51.63;;;24.33;;
73023;SDS011;61199;47.526;8.538;2023-03-01T06:42:35;56.50;;;25.67;;
73023;SDS011;61199;47.526;8.538;2023-03-01T06:45:02;50.10;;;25.03;;
73023;SDS011;61199;47.526;8.538;2023-03-01T06:47:29;53.23;;;25.20;;
73023;SDS011;61199;47.526;8.538;2023-03-01T06:49:56;56.70;;;24.40;;
73023;SDS011;61199;47.526;8.538;2023-03-01T06:52:22;49.37;;;24.30;;
73023;SDS011;61199;47.526;8.538;2023-03-01T06:54:48;48.87;;;25.07;;
73023;SDS011;61199;47.526;8.538;2023-03-01T06:57:15;57.00;;;24.93;;
73023;SDS011;61199;47.526;8.538;2023-03-01T06:59:41;52.67;;;25.17;;
73023;SDS011;61199;47.526;8.538;2023-03-01T07:02:11;52.10;;;25.87;;
73023;SDS011;61199;47.526;8.538;2023-03-01T07:04:38;52.93;;;25.17;;
73023;SDS011;61199;47.526;8.538;2023-03-01T07:07:05;52.53;;;25.67;;
73023;SDS011;61199;47.526;8.538;2023-03-01T07:09:31;52.73;;;26.47;;
73023;SDS011;61199;47.526;8.538;2023-03-01T07:11:58;52.73;;;25.20;;
73023;SDS011;61199;47.526;8.538;2023-03-01T07:14:24;51.63;;;25.00;;
73023;SDS011;61199;47.526;8.538;2023-03-01T07:16:52;55.00;;;25.63;;
73023;SDS011;61199;47.526;8.538;2023-03-01T07:19:18;58.63;;;26.27;;
73023;SDS011;61199;47.526;8.538;2023-03-01T07:21:45;48.80;;;24.80;;
73023;SDS011;61199;47.526;8.538;2023-03-01T07:24:11;48.80;;;24.80;;
73023;SDS011;61199;47.526;8.538;2023-03-01T07:26:38;52.23;;;25.90;;
73023;SDS011;61199;47.526;8.538;2023-03-01T07:29:05;46.53;;;24.80;;
73023;SDS011;61199;47.526;8.538;2023-03-01T07:31:33;53.20;;;24.97;;
73023;SDS011;61199;47.526;8.538;2023-03-01T07:34:00;59.43;;;27.03;;
73023;SDS011;61199;47.526;8.538;2023-03-01T07:36:27;51.20;;;25.37;;
73023;SDS011;61199;47.526;8.538;2023-03-01T07:38:54;46.60;;;24.47;;
73023;SDS011;61199;47.526;8.538;2023-03-01T07:41:21;55.87;;;26.13;;
73023;SDS011;61199;47.526;8.538;2023-03-01T07:43:48;55.77;;;25.83;;
73023;SDS011;61199;47.526;8.538;2023-03-01T07:46:14;48.43;;;24.97;;
73023;SDS011;61199;47.526;8.538;2023-03-01T07:48:41;52.90;;;24.43;;
73023;SDS011;61199;47.526;8.538;2023-03-01T07:51:07;59.07;;;26.70;;
73023;SDS011;61199;47.526;8.538;2023-03-01T07:53:34;53.63;;;26.53;;
73023;SDS011;61199;47.526;8.538;2023-03-01T07:56:10;47.73;;;24.10;;
73023;SDS011;61199;47.526;8.538;2023-03-01T07:58:39;57.13;;;25.23;;
73023;SDS011;61199;47.526;8.538;2023-03-01T08:01:08;54.30;;;24.83;;
73023;SDS011;61199;47.526;8.538;2023-03-01T08:03:36;51.87;;;24.80;;
73023;SDS011;61199;47.526;8.538;2023-03-01T08:06:04;52.20;;;24.57;;
73023;SDS011;61199;47.526;8.538;2023-03-01T08:08:33;54.00;;;24.77;;
73023;SDS011;61199;47.526;8.538;2023-03-01T08:11:00;55.43;;;26.03;;
73023;SDS011;61199;47.526;8.538;2023-03-01T08:13:28;55.67;;;24.40;;
73023;SDS011;61199;47.526;8.538;2023-03-01T08:16:00;58.53;;;28.13;;
73023;SDS011;61199;47.526;8.538;2023-03-01T08:18:28;54.80;;;26.20;;
73023;SDS011;61199;47.526;8.538;2023-03-01T08:20:54;52.37;;;25.23;;
73023;SDS011;61199;47.526;8.538;2023-03-01T08:23:21;49.30;;;23.33;;
73023;SDS011;61199;47.526;8.538;2023-03-01T08:25:47;52.43;;;24.97;;
73023;SDS011;61199;47.526;8.538;2023-03-01T08:28:14;49.53;;;24.57;;
73023;SDS011;61199;47.526;8.538;2023-03-01T08:30:40;57.10;;;25.97;;
73023;SDS011;61199;47.526;8.538;2023-03-01T08:33:06;52.10;;;24.30;;
73023;SDS011;61199;47.526;8.538;2023-03-01T08:35:33;50.40;;;25.17;;
73023;SDS011;61199;47.526;8.538;2023-03-01T08:37:59;47.77;;;25.20;;
73023;SDS011;61199;47.526;8.538;2023-03-01T08:40:26;59.40;;;26.33;;
73023;SDS011;61199;47.526;8.538;2023-03-01T08:42:52;53.13;;;27.47;;
73023;SDS011;61199;47.526;8.538;2023-03-01T08:45:18;53.17;;;26.03;;
73023;SDS011;61199;47.526;8.538;2023-03-01T08:47:45;46.83;;;23.97;;
73023;SDS011;61199;47.526;8.538;2023-03-01T08:50:11;48.63;;;24.73;;
73023;SDS011;61199;47.526;8.538;2023-03-01T08:52:38;52.40;;;24.93;;
73023;SDS011;61199;47.526;8.538;2023-03-01T08:55:04;55.87;;;25.80;;
73023;SDS011;61199;47.526;8.538;2023-03-01T08:57:31;48.93;;;24.13;;
73023;SDS011;61199;47.526;8.538;2023-03-01T08:59:57;55.33;;;26.00;;
73023;SDS011;61199;47.526;8.538;2023-03-01T09:02:24;51.43;;;24.40;;
73023;SDS011;61199;47.526;8.538;2023-03-01T09:04:50;52.50;;;24.27;;
73023;SDS011;61199;47.526;8.538;2023-03-01T09:07:17;48.57;;;24.77;;
73023;SDS011;61199;47.526;8.538;2023-03-01T09:09:43;58.03;;;25.60;;
73023;SDS011;61199;47.526;8.538;2023-03-01T09:12:09;50.30;;;23.27;;
73023;SDS011;61199;47.526;8.538;2023-03-01T09:14:36;48.50;;;24.43;;
73023;SDS011;61199;47.526;8.538;2023-03-01T09:17:04;51.37;;;25.60;;
73023;SDS011;61199;47.526;8.538;2023-03-01T09:19:31;43.90;;;21.47;;
73023;SDS011;61199;47.526;8.538;2023-03-01T09:21:57;53.00;;;25.47;;
73023;SDS011;61199;47.526;8.538;2023-03-01T09:24:24;53.10;;;24.70;;
73023;SDS011;61199;47.526;8.538;2023-03-01T09:26:52;47.73;;;24.60;;
73023;SDS011;61199;47.526;8.538;2023-03-01T09:29:20;53.73;;;24.90;;
73023;SDS011;61199;47.526;8.538;2023-03-01T09:31:46;55.93;;;25.40;;
73023;SDS011;61199;47.526;8.538;2023-03-01T09:34:13;47.07;;;24.63;;
73023;SDS011;61199;47.526;8.538;2023-03-01T09:36:47;47.00;;;24.70;;
73023;SDS011;61199;47.526;8.538;2023-03-01T09:39:14;59.53;;;27.07;;
73023;SDS011;61199;47.526;8.538;2023-03-01T09:47:03;49.77;;;24.00;;
73023;SDS011;61199;47.526;8.538;2023-03-01T09:49:36;50.53;;;25.70;;
73023;SDS011;61199;47.526;8.538;2023-03-01T09:55:16;47.20;;;22.47;;
73023;SDS011;61199;47.526;8.538;2023-03-01T09:57:49;43.67;;;22.33;;
73023;SDS011;61199;47.526;8.538;2023-03-01T10:03:15;47.87;;;23.30;;
73023;SDS011;61199;47.526;8.538;2023-03-01T10:06:06;48.10;;;23.80;;
73023;SDS011;61199;47.526;8.538;2023-03-01T10:08:58;48.50;;;22.00;;
73023;SDS011;61199;47.526;8.538;2023-03-01T10:11:29;49.47;;;23.67;;
73023;SDS011;61199;47.526;8.538;2023-03-01T10:14:03;49.73;;;24.90;;
73023;SDS011;61199;47.526;8.538;2023-03-01T10:16:38;47.40;;;23.40;;
73023;SDS011;61199;47.526;8.538;2023-03-01T10:19:11;48.60;;;23.53;;
73023;SDS011;61199;47.526;8.538;2023-03-01T10:21:41;49.07;;;23.27;;
73023;SDS011;61199;47.526;8.538;2023-03-01T10:24:15;48.07;;;23.70;;
73023;SDS011;61199;47.526;8.538;2023-03-01T10:26:54;44.00;;;22.50;;
73023;SDS011;61199;47.526;8.538;2023-03-01T10:30:05;48.33;;;24.13;;
73023;SDS011;61199;47.526;8.538;2023-03-01T10:32:15;49.50;;;25.17;;
73023;SDS011;61199;47.526;8.538;2023-03-01T10:34:43;52.70;;;24.67;;
73023;SDS011;61199;47.526;8.538;2023-03-01T10:42:46;48.27;;;23.93;;
73023;SDS011;61199;47.526;8.538;2023-03-01T10:50:40;45.87;;;22.20;;
73023;SDS011;61199;47.526;8.538;2023-03-01T10:53:18;46.83;;;23.80;;
73023;SDS011;61199;47.526;8.538;2023-03-01T10:55:59;44.97;;;23.37;;
73023;SDS011;61199;47.526;8.538;2023-03-01T10:58:26;47.23;;;23.47;;
73023;SDS011;61199;47.526;8.538;2023-03-01T11:00:54;44.33;;;22.30;;
73023;SDS011;61199;47.526;8.538;2023-03-01T11:03:42;48.97;;;24.00;;
73023;SDS011;61199;47.526;8.538;2023-03-01T11:08:43;49.60;;;24.20;;
73023;SDS011;61199;47.526;8.538;2023-03-01T11:11:16;50.70;;;24.80;;
73023;SDS011;61199;47.526;8.538;2023-03-01T11:13:59;47.20;;;22.97;;
73023;SDS011;61199;47.526;8.538;2023-03-01T11:19:43;44.90;;;22.77;;
73023;SDS011;61199;47.526;8.538;2023-03-01T11:22:28;52.80;;;24.50;;
73023;SDS011;61199;47.526;8.538;2023-03-01T11:24:55;46.00;;;23.30;;
73023;SDS011;61199;47.526;8.538;2023-03-01T11:27:37;48.93;;;23.47;;
73023;SDS011;61199;47.526;8.538;2023-03-01T11:30:15;46.87;;;23.57;;
73023;SDS011;61199;47.526;8.538;2023-03-01T11:35:34;44.23;;;22.83;;
73023;SDS011;61199;47.526;8.538;2023-03-01T11:40:52;53.03;;;23.43;;
73023;SDS011;61199;47.526;8.538;2023-03-01T11:44:14;48.30;;;23.60;;
73023;SDS011;61199;47.526;8.538;2023-03-01T11:46:26;47.70;;;23.70;;
73023;SDS011;61199;47.526;8.538;2023-03-01T11:49:30;50.30;;;24.17;;
73023;SDS011;61199;47.526;8.538;2023-03-01T11:55:20;47.67;;;23.33;;
73023;SDS011;61199;47.526;8.538;2023-03-01T12:06:00;54.87;;;26.40;;
73023;SDS011;61199;47.526;8.538;2023-03-01T12:28:52;44.37;;;22.80;;
73023;SDS011;61199;47.526;8.538;2023-03-01T12:39:55;49.00;;;24.33;;
73023;SDS011;61199;47.526;8.538;2023-03-01T12:51:05;49.40;;;24.03;;
73023;SDS011;61199;47.526;8.538;2023-03-01T12:53:39;43.80;;;21.90;;
73023;SDS011;61199;47.526;8.538;2023-03-01T12:56:11;49.70;;;23.70;;
73023;SDS011;61199;47.526;8.538;2023-03-01T13:04:20;45.33;;;22.70;;
73023;SDS011;61199;47.526;8.538;2023-03-01T13:12:52;48.33;;;24.47;;
73023;SDS011;61199;47.526;8.538;2023-03-01T13:15:30;42.87;;;21.90;;
73023;SDS011;61199;47.526;8.538;2023-03-01T13:29:11;48.63;;;22.47;;
73023;SDS011;61199;47.526;8.538;2023-03-01T13:33:45;51.40;;;23.33;;
73023;SDS011;61199;47.526;8.538;2023-03-01T13:46:52;43.53;;;22.13;;
73023;SDS011;61199;47.526;8.538;2023-03-01T13:49:22;50.27;;;22.30;;
73023;SDS011;61199;47.526;8.538;2023-03-01T13:51:58;45.80;;;22.90;;
73023;SDS011;61199;47.526;8.538;2023-03-01T13:54:26;47.87;;;22.03;;
73023;SDS011;61199;47.526;8.538;2023-03-01T13:56:57;47.43;;;22.93;;
73023;SDS011;61199;47.526;8.538;2023-03-01T13:59:25;41.90;;;22.07;;
73023;SDS011;61199;47.526;8.538;2023-03-01T14:01:53;42.90;;;23.13;;
73023;SDS011;61199;47.526;8.538;2023-03-01T14:04:24;45.50;;;22.90;;
73023;SDS011;61199;47.526;8.538;2023-03-01T14:06:52;42.40;;;21.80;;
73023;SDS011;61199;47.526;8.538;2023-03-01T14:09:35;46.50;;;22.70;;
73023;SDS011;61199;47.526;8.538;2023-03-01T14:17:40;40.80;;;21.43;;
73023;SDS011;61199;47.526;8.538;2023-03-01T14:20:18;44.83;;;21.97;;
73023;SDS011;61199;47.526;8.538;2023-03-01T14:22:45;45.43;;;22.50;;
73023;SDS011;61199;47.526;8.538;2023-03-01T14:25:19;46.80;;;23.83;;
73023;SDS011;61199;47.526;8.538;2023-03-01T14:27:52;49.03;;;21.63;;
73023;SDS011;61199;47.526;8.538;2023-03-01T14:30:26;47.50;;;23.10;;
73023;SDS011;61199;47.526;8.538;2023-03-01T14:32:59;43.80;;;22.37;;
73023;SDS011;61199;47.526;8.538;2023-03-01T14:35:29;42.50;;;22.80;;
73023;SDS011;61199;47.526;8.538;2023-03-01T14:37:57;45.40;;;22.80;;
73023;SDS011;61199;47.526;8.538;2023-03-01T14:42:56;44.70;;;21.87;;
73023;SDS011;61199;47.526;8.538;2023-03-01T14:45:25;51.33;;;24.30;;
73023;SDS011;61199;47.526;8.538;2023-03-01T14:47:54;51.30;;;23.93;;
73023;SDS011;61199;47.526;8.538;2023-03-01T14:50:25;42.13;;;21.60;;
73023;SDS011;61199;47.526;8.538;2023-03-01T14:52:58;47.07;;;22.70;;
73023;SDS011;61199;47.526;8.538;2023-03-01T14:55:37;47.13;;;24.17;;
73023;SDS011;61199;47.526;8.538;2023-03-01T14:58:14;41.43;;;23.00;;
73023;SDS011;61199;47.526;8.538;2023-03-01T15:00:48;48.13;;;22.87;;
73023;SDS011;61199;47.526;8.538;2023-03-01T15:03:23;46.90;;;21.93;;
73023;SDS011;61199;47.526;8.538;2023-03-01T15:05:53;47.10;;;22.53;;
73023;SDS011;61199;47.526;8.538;2023-03-01T15:08:21;42.60;;;22.40;;
73023;SDS011;61199;47.526;8.538;2023-03-01T15:10:58;46.87;;;22.33;;
73023;SDS011;61199;47.526;8.538;2023-03-01T15:13:43;41.37;;;21.23;;
73023;SDS011;61199;47.526;8.538;2023-03-01T15:16:13;45.07;;;23.20;;
73023;SDS011;61199;47.526;8.538;2023-03-01T15:18:49;50.30;;;24.33;;
73023;SDS011;61199;47.526;8.538;2023-03-01T15:21:20;45.47;;;22.97;;
73023;SDS011;61199;47.526;8.538;2023-03-01T15:23:50;43.97;;;21.90;;
73023;SDS011;61199;47.526;8.538;2023-03-01T15:26:49;44.77;;;22.47;;
73023;SDS011;61199;47.526;8.538;2023-03-01T15:29:22;43.93;;;21.63;;
73023;SDS011;61199;47.526;8.538;2023-03-01T15:32:03;41.23;;;21.47;;
73023;SDS011;61199;47.526;8.538;2023-03-01T15:34:50;46.27;;;22.17;;
73023;SDS011;61199;47.526;8.538;2023-03-01T15:37:38;46.33;;;22.47;;
73023;SDS011;61199;47.526;8.538;2023-03-01T15:40:17;43.30;;;21.77;;
73023;SDS011;61199;47.526;8.538;2023-03-01T15:42:57;41.70;;;22.40;;
73023;SDS011;61199;47.526;8.538;2023-03-01T15:45:25;47.30;;;22.17;;
73023;SDS011;61199;47.526;8.538;2023-03-01T15:47:57;44.43;;;22.70;;
73023;SDS011;61199;47.526;8.538;2023-03-01T15:50:28;46.23;;;22.33;;
73023;SDS011;61199;47.526;8.538;2023-03-01T15:52:59;41.57;;;21.13;;
73023;SDS011;61199;47.526;8.538;2023-03-01T15:55:28;43.17;;;21.60;;
73023;SDS011;61199;47.526;8.538;2023-03-01T16:00:26;48.10;;;22.27;;
73023;SDS011;61199;47.526;8.538;2023-03-01T16:02:53;49.13;;;23.73;;
73023;SDS011;61199;47.526;8.538;2023-03-01T16:05:24;41.60;;;22.37;;
73023;SDS011;61199;47.526;8.538;2023-03-01T16:07:52;47.33;;;24.50;;
73023;SDS011;61199;47.526;8.538;2023-03-01T16:10:19;45.73;;;23.50;;
73023;SDS011;61199;47.526;8.538;2023-03-01T16:12:46;45.53;;;22.57;;
73023;SDS011;61199;47.526;8.538;2023-03-01T16:17:49;47.93;;;23.63;;
73023;SDS011;61199;47.526;8.538;2023-03-01T16:20:16;44.40;;;22.53;;
73023;SDS011;61199;47.526;8.538;2023-03-01T16:22:53;47.07;;;22.43;;
73023;SDS011;61199;47.526;8.538;2023-03-01T16:25:20;47.27;;;22.80;;
73023;SDS011;61199;47.526;8.538;2023-03-01T16:27:48;47.23;;;22.93;;
73023;SDS011;61199;47.526;8.538;2023-03-01T16:30:16;43.60;;;22.80;;
73023;SDS011;61199;47.526;8.538;2023-03-01T16:32:45;46.40;;;23.03;;
73023;SDS011;61199;47.526;8.538;2023-03-01T16:35:13;46.23;;;23.40;;
73023;SDS011;61199;47.526;8.538;2023-03-01T16:37:42;42.67;;;22.47;;
73023;SDS011;61199;47.526;8.538;2023-03-01T16:40:17;42.00;;;21.13;;
73023;SDS011;61199;47.526;8.538;2023-03-01T16:42:53;46.47;;;22.67;;
73023;SDS011;61199;47.526;8.538;2023-03-01T16:45:21;42.13;;;22.43;;
73023;SDS011;61199;47.526;8.538;2023-03-01T16:47:50;41.50;;;22.17;;
73023;SDS011;61199;47.526;8.538;2023-03-01T16:50:20;46.10;;;23.30;;
73023;SDS011;61199;47.526;8.538;2023-03-01T16:52:47;47.77;;;22.03;;
73023;SDS011;61199;47.526;8.538;2023-03-01T16:55:14;48.63;;;22.40;;
73023;SDS011;61199;47.526;8.538;2023-03-01T16:57:41;40.57;;;21.50;;
73023;SDS011;61199;47.526;8.538;2023-03-01T17:00:08;44.53;;;22.73;;